createdAt,value
2023-02-11T00:01:38.206Z,34.07
2023-02-11T00:06:35.819Z,33.23
2023-02-11T00:11:30.859Z,35.20
2023-02-11T00:16:24.729Z,30.67
2023-02-11T00:21:21.150Z,30.13
2023-02-11T00:26:21.394Z,33.43
2023-02-11T00:31:16.353Z,28.83
2023-02-11T00:36:15.233Z,30.47
2023-02-11T00:41:10.599Z,30.60
2023-02-11T00:46:08.820Z,31.40
2023-02-11T00:51:04.192Z,30.77
2023-02-11T00:55:57.732Z,30.57
2023-02-11T01:00:51.364Z,33.07
2023-02-11T01:05:46.423Z,31.07
2023-02-11T01:10:44.069Z,30.93
2023-02-11T01:15:37.810Z,32.17
2023-02-11T01:20:31.341Z,31.10
2023-02-11T01:25:30.948Z,32.63
2023-02-11T01:30:28.351Z,29.53
2023-02-11T01:35:21.809Z,34.90
2023-02-11T01:40:27.119Z,34.53
2023-02-11T01:45:58.921Z,32.20
2023-02-11T01:50:58.455Z,31.27
2023-02-11T01:56:12.706Z,37.07
2023-02-11T02:01:29.514Z,33.67
2023-02-11T02:06:43.653Z,30.97
2023-02-11T02:11:45.150Z,39.23
2023-02-11T02:16:51.949Z,32.23
2023-02-11T02:22:37.173Z,39.00
2023-02-11T02:27:54.883Z,33.93
2023-02-11T02:33:22.363Z,31.10
2023-02-11T02:38:31.079Z,32.73
2023-02-11T02:43:38.582Z,36.10
2023-02-11T02:48:36.612Z,33.37
2023-02-11T02:53:48.719Z,32.90
2023-02-11T02:59:32.780Z,29.03
2023-02-11T03:04:46.007Z,30.73
2023-02-11T03:09:53.368Z,33.73
2023-02-11T03:15:09.847Z,34.77
2023-02-11T03:20:14.494Z,33.47
2023-02-11T03:25:17.386Z,31.37
2023-02-11T03:30:19.148Z,30.97
2023-02-11T03:35:30.821Z,33.23
2023-02-11T03:40:33.411Z,34.03
2023-02-11T03:45:37.964Z,32.83
2023-02-11T03:50:51.694Z,33.00
2023-02-11T04:01:42.793Z,35.67
2023-02-11T04:06:43.633Z,34.27
2023-02-11T04:11:43.095Z,34.50
2023-02-11T04:16:53.949Z,40.43
2023-02-11T04:22:07.759Z,34.83
2023-02-11T04:27:14.968Z,36.87
2023-02-11T04:32:49.379Z,38.10
2023-02-11T04:37:55.549Z,39.90
2023-02-11T04:43:08.875Z,33.63
2023-02-11T04:48:06.670Z,34.00
2023-02-11T04:53:04.549Z,33.03
2023-02-11T04:58:18.946Z,35.07
2023-02-11T05:03:27.253Z,32.70
2023-02-11T05:08:31.923Z,36.30
2023-02-11T05:13:40.234Z,39.57
2023-02-11T05:18:54.107Z,35.77
2023-02-11T05:44:14.707Z,36.70
2023-02-11T05:50:21.421Z,38.67
2023-02-11T06:01:52.472Z,37.33
2023-02-11T06:07:08.246Z,36.73
2023-02-11T06:12:16.489Z,39.47
2023-02-11T06:18:05.621Z,40.00
2023-02-11T06:23:33.141Z,36.50
2023-02-11T06:28:52.233Z,36.50
2023-02-11T06:34:05.641Z,46.03
2023-02-11T06:45:24.563Z,43.23
2023-02-11T06:51:06.446Z,43.63
2023-02-11T07:02:44.691Z,42.43
2023-02-11T07:08:29.262Z,44.80
2023-02-11T07:14:27.240Z,46.43
2023-02-11T07:20:26.435Z,42.33
2023-02-11T07:31:31.865Z,48.40
2023-02-11T07:36:53.777Z,45.13
2023-02-11T07:42:21.261Z,50.90
2023-02-11T07:47:28.386Z,90.97
2023-02-11T07:52:50.722Z,58.67
2023-02-11T07:58:43.220Z,56.40
2023-02-11T08:09:58.703Z,49.70
2023-02-11T08:20:21.222Z,50.83
2023-02-11T08:25:27.622Z,50.17
2023-02-11T08:30:44.477Z,52.00
2023-02-11T08:36:04.243Z,47.70
2023-02-11T08:41:16.132Z,48.30
2023-02-11T08:46:21.642Z,48.80
2023-02-11T08:56:58.524Z,49.40
2023-02-11T09:02:02.510Z,46.97
2023-02-11T09:06:59.597Z,57.37
2023-02-11T09:12:03.947Z,53.27
2023-02-11T09:16:59.352Z,53.00
2023-02-11T09:21:57.578Z,51.23
2023-02-11T09:26:52.836Z,56.60
2023-02-11T09:31:53.302Z,57.87
2023-02-11T09:36:50.728Z,63.57
2023-02-11T09:42:18.857Z,51.37
2023-02-11T09:47:28.532Z,57.80
2023-02-11T09:52:40.189Z,61.57
2023-02-11T09:57:37.253Z,64.57
2023-02-11T10:03:35.715Z,63.47
2023-02-11T10:08:45.275Z,59.90
2023-02-11T10:13:52.467Z,65.47
2023-02-11T10:19:18.212Z,63.50
2023-02-11T10:24:17.162Z,60.03
2023-02-11T10:29:46.130Z,56.57
2023-02-11T10:34:49.461Z,57.67
2023-02-11T10:39:44.684Z,58.50
2023-02-11T10:44:42.987Z,51.23
2023-02-11T10:49:41.137Z,53.57
2023-02-11T10:54:34.743Z,55.63
2023-02-11T10:59:34.444Z,54.17
2023-02-11T11:04:40.951Z,56.53
2023-02-11T11:10:29.289Z,56.40
2023-02-11T11:15:33.588Z,55.73
2023-02-11T11:20:58.898Z,49.63
2023-02-11T11:26:33.760Z,52.93
2023-02-11T12:08:05.011Z,46.57
2023-02-11T12:13:12.640Z,49.50
2023-02-11T12:18:39.403Z,51.13
2023-02-11T12:24:01.441Z,45.40
2023-02-11T12:29:14.981Z,47.27
2023-02-11T12:34:45.778Z,49.17
2023-02-11T12:39:48.749Z,46.63
2023-02-11T12:45:15.130Z,43.70
2023-02-11T13:05:38.703Z,49.23
2023-02-11T13:15:38.405Z,55.77
2023-02-11T13:20:46.688Z,44.53
2023-02-11T13:25:50.229Z,42.60
2023-02-11T13:30:47.684Z,53.43
2023-02-11T13:56:28.775Z,52.57
2023-02-11T14:07:04.078Z,40.90
2023-02-11T14:12:36.518Z,41.77
2023-02-11T14:17:33.106Z,37.87
2023-02-11T14:22:31.952Z,42.73
2023-02-11T14:27:43.867Z,46.60
2023-02-11T14:53:02.625Z,49.00
2023-02-11T14:58:08.964Z,47.17
2023-02-11T15:03:02.393Z,45.37
2023-02-11T15:08:00.462Z,49.80
2023-02-11T16:09:35.365Z,44.87
2023-02-11T16:14:39.377Z,50.10
2023-02-11T16:19:36.482Z,49.00
2023-02-11T16:24:35.404Z,52.80
2023-02-11T16:49:59.884Z,48.37
2023-02-11T17:51:41.150Z,54.10
2023-02-11T17:56:37.660Z,57.33
2023-02-11T18:01:34.872Z,66.00
2023-02-11T18:06:29.273Z,56.97
2023-02-11T18:11:25.367Z,51.30
2023-02-11T18:16:24.628Z,51.83
2023-02-11T18:21:22.348Z,56.53
2023-02-11T18:26:18.760Z,58.33
2023-02-11T19:01:57.712Z,57.57
2023-02-11T19:12:01.357Z,58.53
2023-02-11T19:17:11.911Z,51.17
2023-02-11T19:22:15.623Z,53.63
2023-02-11T19:27:49.212Z,53.90
2023-02-11T19:53:12.126Z,56.40
2023-02-11T19:58:05.512Z,62.13
2023-02-11T20:02:58.950Z,60.43
2023-02-11T20:07:52.410Z,52.43
2023-02-11T20:48:37.481Z,49.30
2023-02-11T21:54:54.665Z,46.63
2023-02-11T22:10:03.859Z,48.03
